Time;durP1;ratioP1;P1;durP2;ratioP2;P2;SDS_P1;SDS_P2;PMS_P1;PMS_P2;Temp;Humidity;BMP_temperature;BMP_pressure;BME280_temperature;BME280_humidity;BME280_pressure;Samples;Min_cycle;Max_cycle;Signal;HPM_P1;HPM_P2
2024/03/10 00:01:19;;;;;;;0.30;0.20;;;;;;;11.58;60.48;98340.72;5028789;28;20492;-48
2024/03/10 00:03:46;;;;;;;0.30;0.20;;;;;;;11.61;61.06;98334.34;5055092;28;20900;-47
2024/03/10 00:06:12;;;;;;;0.30;0.20;;;;;;;11.42;61.94;98329.34;5056099;28;20537;-47
2024/03/10 00:08:42;;;;;;;0.30;0.20;;;;;;;11.18;62.86;98335.25;5055348;28;20547;-48
2024/03/10 00:11:12;;;;;;;0.30;0.20;;;;;;;11.13;63.68;98336.50;5055214;28;20451;-48
2024/03/10 00:13:39;;;;;;;0.30;0.20;;;;;;;11.16;63.12;98337.16;5044896;28;20445;-47
2024/03/10 00:16:05;;;;;;;0.30;0.20;;;;;;;11.23;62.80;98329.63;5055024;28;20905;-48
2024/03/10 00:18:32;;;;;;;0.30;0.20;;;;;;;11.21;63.00;98320.91;5054995;28;20536;-48
2024/03/10 00:21:01;;;;;;;0.30;0.20;;;;;;;11.22;62.76;98309.31;5055245;28;20446;-48
2024/03/10 00:23:27;;;;;;;0.30;0.20;;;;;;;11.21;62.86;98310.28;5054764;28;20541;-47
2024/03/10 00:25:54;;;;;;;0.30;0.20;;;;;;;11.01;63.55;98313.34;5039527;28;20452;-48
2024/03/10 00:28:21;;;;;;;0.30;0.20;;;;;;;11.10;62.97;98303.00;5044890;28;20903;-48
2024/03/10 00:30:47;;;;;;;0.30;0.20;;;;;;;11.02;63.27;98318.56;5055133;28;20898;-48
2024/03/10 00:33:16;;;;;;;0.30;0.20;;;;;;;10.82;64.08;98303.81;5054561;28;20504;-48
2024/03/10 00:35:43;;;;;;;0.30;0.20;;;;;;;10.83;64.40;98312.69;5054988;28;20496;-48
2024/03/10 00:38:09;;;;;;;0.30;0.20;;;;;;;10.78;64.82;98309.44;5054589;28;20520;-47
2024/03/10 00:40:37;;;;;;;0.30;0.20;;;;;;;10.78;65.16;98307.63;5036286;28;20456;-47
2024/03/10 00:43:04;;;;;;;0.30;0.20;;;;;;;10.71;65.39;98308.13;5051259;28;20450;-46
2024/03/10 00:45:30;;;;;;;0.30;0.20;;;;;;;10.71;64.92;98308.97;5055050;28;20453;-49
2024/03/10 00:47:59;;;;;;;0.30;0.20;;;;;;;10.75;64.54;98304.31;5054361;28;20488;-47
2024/03/10 00:50:26;;;;;;;0.30;0.20;;;;;;;10.73;64.67;98316.84;5035480;28;20459;-47
2024/03/10 00:52:53;;;;;;;0.30;0.20;;;;;;;10.63;65.05;98313.88;5052191;28;20447;-47
2024/03/10 00:55:20;;;;;;;0.30;0.20;;;;;;;10.58;64.86;98305.34;5046106;28;20475;-48
2024/03/10 00:57:47;;;;;;;0.30;0.20;;;;;;;10.56;65.22;98309.91;5050371;28;20467;-48
2024/03/10 01:00:14;;;;;;;0.30;0.20;;;;;;;10.63;65.24;98305.91;5054482;28;20481;-48
2024/03/10 01:02:40;;;;;;;0.30;0.20;;;;;;;10.62;65.65;98314.81;5054492;28;20446;-48
2024/03/10 01:05:07;;;;;;;0.30;0.20;;;;;;;10.70;64.98;98312.56;5054257;28;20462;-48
2024/03/10 01:07:34;;;;;;;0.30;0.20;;;;;;;10.73;65.03;98314.19;5043865;28;20507;-47
2024/03/10 01:10:01;;;;;;;0.40;0.40;;;;;;;10.86;64.46;98310.69;5037883;28;20487;-48
2024/03/10 01:12:28;;;;;;;0.30;0.20;;;;;;;11.04;64.11;98331.75;5054075;28;20502;-47
2024/03/10 01:14:55;;;;;;;0.30;0.20;;;;;;;10.97;63.78;98325.97;5053957;28;20454;-48
2024/03/10 01:17:22;;;;;;;0.30;0.20;;;;;;;11.01;63.75;98330.16;5051226;28;20532;-48
2024/03/10 01:19:49;;;;;;;0.30;0.20;;;;;;;10.76;64.46;98332.59;5052910;28;20950;-48
2024/03/10 01:22:18;;;;;;;0.30;0.20;;;;;;;10.90;64.31;98327.28;5053771;28;20821;-48
2024/03/10 01:24:45;;;;;;;0.30;0.20;;;;;;;10.99;63.91;98332.03;5053898;28;20508;-48
2024/03/10 01:27:11;;;;;;;0.30;0.20;;;;;;;11.02;64.11;98331.00;5028774;28;20562;-48
2024/03/10 01:29:38;;;;;;;0.30;0.20;;;;;;;11.03;63.94;98328.25;5053784;28;20577;-48
2024/03/10 01:32:04;;;;;;;0.30;0.20;;;;;;;10.96;64.27;98321.56;5052158;28;20542;-48
2024/03/10 01:34:31;;;;;;;0.30;0.20;;;;;;;10.96;65.19;98313.59;5053858;28;20474;-48
2024/03/10 01:36:57;;;;;;;0.30;0.20;;;;;;;10.92;64.65;98310.28;5041493;28;20562;-48
2024/03/10 01:39:24;;;;;;;0.30;0.20;;;;;;;10.91;64.11;98311.25;5048382;28;20444;-47
2024/03/10 01:41:53;;;;;;;0.30;0.20;;;;;;;10.74;65.93;98308.78;5027532;28;20454;-48
2024/03/10 01:44:19;;;;;;;0.30;0.20;;;;;;;10.49;66.42;98305.88;5053919;28;20469;-48
2024/03/10 01:46:47;;;;;;;0.30;0.20;;;;;;;10.59;66.16;98307.06;5053724;28;20504;-48
2024/03/10 01:49:14;;;;;;;0.30;0.20;;;;;;;10.42;66.54;98302.75;5044594;28;21058;-49
2024/03/10 01:51:41;;;;;;;0.30;0.20;;;;;;;10.44;67.02;98297.34;5031570;28;20508;-48
2024/03/10 01:54:11;;;;;;;0.30;0.20;;;;;;;10.49;66.98;98285.50;5053925;28;20500;-48
2024/03/10 01:56:38;;;;;;;0.30;0.20;;;;;;;10.28;68.10;98286.75;5041796;28;20530;-48
2024/03/10 01:59:07;;;;;;;0.30;0.20;;;;;;;10.33;67.81;98282.06;5053424;28;20525;-48
2024/03/10 02:01:35;;;;;;;0.30;0.20;;;;;;;10.36;67.82;98284.53;5053210;28;20824;-48
2024/03/10 02:04:03;;;;;;;0.30;0.20;;;;;;;10.26;68.89;98278.03;5043778;28;20491;-47
2024/03/10 02:06:29;;;;;;;0.30;0.20;;;;;;;10.17;69.07;98276.78;5052894;28;20451;-48
2024/03/10 02:08:57;;;;;;;2.10;2.00;;;;;;;10.16;69.50;98271.56;5052308;28;20499;-48
2024/03/10 02:11:23;;;;;;;0.30;0.20;;;;;;;10.14;69.69;98266.31;5053209;28;20885;-48
2024/03/10 02:13:50;;;;;;;0.30;0.20;;;;;;;10.06;70.22;98269.44;5052797;28;20458;-48
2024/03/10 02:16:17;;;;;;;0.30;0.20;;;;;;;10.09;70.12;98258.63;5051965;28;20854;-48
2024/03/10 02:18:43;;;;;;;0.30;0.20;;;;;;;10.18;69.82;98259.03;5044776;28;20946;-48
2024/03/10 02:21:11;;;;;;;0.30;0.20;;;;;;;10.09;70.68;98257.78;5053032;28;20534;-47
2024/03/10 02:23:58;;;;;;;0.30;0.20;;;;;;;10.15;70.49;98254.78;5049922;28;20461;-47
2024/03/10 02:26:32;;;;;;;0.30;0.20;;;;;;;10.14;70.55;98255.69;5029079;28;20518;-48
2024/03/10 02:29:59;;;;;;;0.30;0.20;;;;;;;10.04;71.20;98249.25;5052920;28;20502;-47
2024/03/10 02:48:24;;;;;;;0.30;0.20;;;;;;;9.92;72.21;98199.53;5050539;28;20551;-47
2024/03/10 02:50:51;;;;;;;0.30;0.20;;;;;;;9.91;73.05;98190.72;5033715;28;20455;-48
2024/03/10 02:53:17;;;;;;;0.30;0.20;;;;;;;10.07;72.76;98174.75;5053321;28;20530;-48
2024/03/10 02:55:46;;;;;;;0.30;0.20;;;;;;;10.04;72.47;98186.41;5040378;28;20488;-47
2024/03/10 02:58:13;;;;;;;0.30;0.20;;;;;;;10.08;72.73;98181.75;5048181;28;20550;-48
2024/03/10 03:00:40;;;;;;;0.30;0.20;;;;;;;10.07;73.04;98175.59;5046833;28;20451;-48
2024/03/10 03:03:08;;;;;;;0.30;0.20;;;;;;;10.06;72.83;98179.19;5052742;28;20451;-47
2024/03/10 03:05:36;;;;;;;0.30;0.20;;;;;;;10.14;72.65;98165.44;5052569;28;20447;-48
2024/03/10 03:08:03;;;;;;;0.30;0.20;;;;;;;10.30;72.32;98166.25;5045150;28;20472;-48
2024/03/10 03:10:30;;;;;;;0.30;0.20;;;;;;;10.23;71.90;98167.56;5042522;28;20493;-48
2024/03/10 03:12:56;;;;;;;0.30;0.20;;;;;;;10.55;71.19;98173.56;5052005;28;20813;-48
2024/03/10 03:15:23;;;;;;;0.30;0.20;;;;;;;10.63;70.31;98165.94;5038336;28;20967;-48
2024/03/10 03:17:50;;;;;;;0.30;0.20;;;;;;;10.84;69.67;98155.78;5051984;28;20549;-48
2024/03/10 03:20:20;;;;;;;0.30;0.20;;;;;;;10.72;70.29;98156.56;5052120;28;20447;-48
2024/03/10 03:22:48;;;;;;;0.30;0.20;;;;;;;10.51;71.31;98165.88;5056074;28;20844;-47
2024/03/10 03:25:17;;;;;;;0.30;0.20;;;;;;;10.32;71.49;98158.19;5050691;28;20469;-48
2024/03/10 03:27:48;;;;;;;0.30;0.20;;;;;;;10.35;71.93;98153.53;5036453;28;20604;-47
2024/03/10 03:30:16;;;;;;;0.30;0.20;;;;;;;10.24;72.99;98142.72;5055998;28;20490;-47
2024/03/10 03:32:43;;;;;;;0.30;0.20;;;;;;;10.25;72.91;98140.91;5056182;28;20451;-47
2024/03/10 03:35:15;;;;;;;0.30;0.20;;;;;;;10.20;73.17;98138.53;5056738;28;20885;-47
2024/03/10 03:37:44;;;;;;;0.30;0.20;;;;;;;10.21;73.35;98128.75;5056783;28;20513;-47
2024/03/10 03:40:12;;;;;;;0.30;0.20;;;;;;;10.27;72.87;98129.25;5044640;28;20479;-48
2024/03/10 03:42:39;;;;;;;0.30;0.20;;;;;;;10.27;73.21;98123.09;5045060;28;20451;-47
2024/03/10 03:45:07;;;;;;;0.30;0.20;;;;;;;10.34;72.93;98119.97;5030770;28;20830;-47
2024/03/10 03:47:33;;;;;;;0.30;0.20;;;;;;;10.24;73.09;98105.56;5056857;28;20466;-48
2024/03/10 03:50:00;;;;;;;0.30;0.20;;;;;;;10.26;73.30;98097.50;5040498;28;20488;-47
2024/03/10 03:52:27;;;;;;;0.30;0.20;;;;;;;10.26;73.34;98084.22;5050978;28;20472;-47
2024/03/10 03:54:53;;;;;;;0.30;0.20;;;;;;;10.21;73.33;98079.19;5052982;28;20490;-47
2024/03/10 03:57:22;;;;;;;0.30;0.20;;;;;;;10.38;73.11;98072.81;5044578;28;20561;-47
2024/03/10 03:59:49;;;;;;;0.30;0.20;;;;;;;10.25;73.60;98071.88;5033606;28;20451;-47
2024/03/10 04:02:15;;;;;;;0.30;0.20;;;;;;;10.22;73.95;98072.94;5057353;28;20460;-47
2024/03/10 04:04:43;;;;;;;0.30;0.20;;;;;;;10.34;73.24;98064.22;5056683;28;21006;-47
2024/03/10 04:07:10;;;;;;;0.30;0.20;;;;;;;10.25;74.07;98063.94;5056886;28;20494;-48
2024/03/10 04:09:36;;;;;;;0.30;0.20;;;;;;;10.32;73.24;98067.91;5053105;28;20492;-47
2024/03/10 04:12:03;;;;;;;0.30;0.20;;;;;;;10.25;73.43;98061.28;5055408;28;20453;-48
2024/03/10 04:14:30;;;;;;;0.30;0.20;;;;;;;10.30;73.48;98060.06;5056122;28;20867;-48
2024/03/10 04:16:57;;;;;;;0.30;0.20;;;;;;;10.22;73.67;98054.34;5055704;28;20894;-47
2024/03/10 04:19:24;;;;;;;0.30;0.20;;;;;;;10.32;73.17;98051.97;5057159;28;20508;-47
2024/03/10 04:21:50;;;;;;;0.30;0.20;;;;;;;10.30;73.39;98045.91;5054463;28;20503;-47
2024/03/10 04:24:18;;;;;;;0.30;0.20;;;;;;;10.19;73.95;98040.41;5054140;28;20509;-48
2024/03/10 04:26:44;;;;;;;1.03;1.03;;;;;;;10.22;74.12;98032.28;5030152;28;20483;-47
2024/03/10 04:29:11;;;;;;;0.30;0.20;;;;;;;10.27;73.97;98031.00;5046709;28;20940;-47
2024/03/10 04:31:38;;;;;;;0.30;0.20;;;;;;;10.25;73.86;98040.03;5055500;28;20447;-47
2024/03/10 04:34:05;;;;;;;0.30;0.20;;;;;;;10.28;73.76;98055.75;5040749;28;20510;-48
2024/03/10 04:36:32;;;;;;;0.30;0.20;;;;;;;10.45;72.81;98060.03;5047720;28;20543;-47
2024/03/10 04:38:59;;;;;;;0.30;0.20;;;;;;;10.47;72.73;98061.63;5041721;28;20825;-48
2024/03/10 04:41:26;;;;;;;0.30;0.20;;;;;;;10.35;73.38;98054.44;5037972;28;20534;-48
2024/03/10 04:43:53;;;;;;;0.70;0.70;;;;;;;10.36;73.01;98057.00;5054813;28;20451;-48
2024/03/10 04:46:19;;;;;;;0.30;0.20;;;;;;;10.43;73.28;98069.91;5054392;28;20451;-48
2024/03/10 04:48:46;;;;;;;0.30;0.20;;;;;;;10.29;73.54;98078.72;5049891;28;20879;-48
2024/03/10 04:51:14;;;;;;;0.30;0.20;;;;;;;10.49;73.05;98073.00;5035183;28;20932;-49
2024/03/10 04:53:42;;;;;;;0.30;0.20;;;;;;;10.45;72.43;98073.31;5045463;28;20500;-48
2024/03/10 04:56:12;;;;;;;0.40;0.40;;;;;;;10.49;72.44;98080.97;5043739;28;20457;-48
2024/03/10 04:58:42;;;;;;;0.30;0.20;;;;;;;10.42;72.09;98081.47;5054158;28;20502;-48
2024/03/10 05:01:13;;;;;;;1.57;1.57;;;;;;;10.66;71.20;98055.97;5054676;28;20451;-48
2024/03/10 05:03:40;;;;;;;0.30;0.20;;;;;;;10.58;71.44;98056.47;5054101;28;20490;-48
2024/03/10 05:06:09;;;;;;;0.30;0.20;;;;;;;10.67;71.25;98057.66;5043136;28;20525;-48
2024/03/10 05:08:36;;;;;;;0.30;0.20;;;;;;;10.54;71.37;98065.56;5054012;28;20524;-49
2024/03/10 05:11:05;;;;;;;0.30;0.20;;;;;;;10.48;71.39;98073.94;5040420;28;20492;-47
2024/03/10 05:13:36;;;;;;;0.30;0.20;;;;;;;10.28;72.83;98072.56;5042180;28;20454;-47
2024/03/10 05:16:03;;;;;;;0.30;0.20;;;;;;;10.43;72.29;98075.22;5053999;28;20442;-48
2024/03/10 05:18:31;;;;;;;2.30;2.20;;;;;;;10.56;71.79;98081.44;5053593;28;21029;-48
2024/03/10 05:20:57;;;;;;;3.50;3.30;;;;;;;10.66;71.82;98079.88;5054180;28;20451;-49
2024/03/10 05:23:26;;;;;;;0.30;0.20;;;;;;;10.66;71.46;98078.06;5053765;28;20451;-48
2024/03/10 05:25:52;;;;;;;0.30;0.20;;;;;;;10.46;72.33;98085.63;5038478;28;20533;-48
2024/03/10 05:28:19;;;;;;;0.30;0.20;;;;;;;10.04;73.77;98098.81;5045328;28;20999;-48
2024/03/10 05:30:45;;;;;;;0.30;0.20;;;;;;;10.01;74.39;98092.84;5052540;28;20943;-47
2024/03/10 05:33:12;;;;;;;0.30;0.20;;;;;;;9.98;74.66;98083.25;5027462;28;20536;-48
2024/03/10 05:35:38;;;;;;;0.30;0.20;;;;;;;9.91;75.57;98076.63;5055699;28;20470;-48
2024/03/10 05:38:05;;;;;;;0.30;0.20;;;;;;;9.84;75.58;98083.25;5054187;28;20499;-47
2024/03/10 05:40:32;;;;;;;0.30;0.20;;;;;;;9.98;75.27;98085.03;5050280;28;20522;-47
2024/03/10 05:42:58;;;;;;;0.30;0.20;;;;;;;9.88;75.96;98070.66;5056120;28;20881;-48
2024/03/10 05:45:25;;;;;;;0.30;0.20;;;;;;;9.79;76.22;98064.09;5051784;28;20487;-48
2024/03/10 05:47:51;;;;;;;0.30;0.20;;;;;;;9.68;76.25;98056.78;5052375;28;20584;-48
2024/03/10 05:50:19;;;;;;;0.30;0.20;;;;;;;9.65;76.49;98051.69;5046052;28;20488;-48
2024/03/10 05:52:46;;;;;;;0.30;0.20;;;;;;;9.76;76.43;98059.84;5057537;28;20446;-47
2024/03/10 05:55:13;;;;;;;0.30;0.20;;;;;;;9.72;76.17;98058.31;5053387;28;20453;-48
2024/03/10 05:57:42;;;;;;;0.50;0.50;;;;;;;9.58;77.01;98068.06;5051873;28;20509;-48
2024/03/10 06:00:18;;;;;;;0.30;0.20;;;;;;;9.57;77.45;98074.31;5062202;28;20500;-47
2024/03/10 06:02:44;;;;;;;0.30;0.20;;;;;;;9.65;77.15;98074.72;5059984;28;20525;-47
2024/03/10 06:05:15;;;;;;;0.30;0.20;;;;;;;9.67;76.67;98092.22;5034153;28;20460;-48
2024/03/10 06:07:43;;;;;;;2.33;2.20;;;;;;;9.65;76.85;98102.09;5051615;28;20470;-47
2024/03/10 06:10:10;;;;;;;0.30;0.20;;;;;;;9.63;77.46;98103.13;5028673;28;20488;-48
2024/03/10 06:12:42;;;;;;;0.30;0.20;;;;;;;9.54;77.42;98096.56;5040364;28;20482;-47
2024/03/10 06:15:13;;;;;;;0.30;0.20;;;;;;;9.51;77.91;98088.78;5025492;28;20457;-48
2024/03/10 06:17:50;;;;;;;0.30;0.20;;;;;;;9.37;78.39;98091.41;5051598;28;20475;-47
2024/03/10 06:25:48;;;;;;;0.30;0.20;;;;;;;9.30;79.45;98087.41;5024590;28;20451;-47
2024/03/10 06:28:15;;;;;;;0.30;0.20;;;;;;;9.35;79.31;98101.25;5036306;28;20997;-46
2024/03/10 06:30:41;;;;;;;0.30;0.20;;;;;;;9.44;78.49;98101.56;5044075;28;20557;-47
2024/03/10 06:33:08;;;;;;;0.30;0.20;;;;;;;9.53;78.34;98110.78;5054457;28;20453;-48
2024/03/10 06:35:34;;;;;;;0.30;0.20;;;;;;;9.42;78.59;98115.84;5029463;28;20456;-47
2024/03/10 06:38:03;;;;;;;0.30;0.20;;;;;;;9.48;78.23;98126.13;5025554;28;20473;-47
2024/03/10 06:40:29;;;;;;;0.30;0.20;;;;;;;9.53;77.95;98126.69;5046912;28;20512;-47
2024/03/10 06:42:56;;;;;;;0.30;0.20;;;;;;;9.43;78.39;98120.22;5027665;28;20460;-47
2024/03/10 06:45:23;;;;;;;2.30;2.20;;;;;;;9.47;78.32;98121.75;5042368;28;20453;-47
2024/03/10 06:47:51;;;;;;;0.30;0.20;;;;;;;9.51;78.20;98139.19;5046127;28;20560;-47
2024/03/10 06:50:18;;;;;;;0.30;0.20;;;;;;;9.61;77.40;98147.47;5026424;28;20516;-47
2024/03/10 06:52:46;;;;;;;0.30;0.20;;;;;;;9.47;78.08;98151.78;5034708;28;20454;-47
2024/03/10 06:55:14;;;;;;;0.30;0.20;;;;;;;9.62;77.78;98168.59;5029042;28;20497;-47
2024/03/10 06:57:41;;;;;;;0.30;0.20;;;;;;;9.61;78.00;98158.91;5032062;28;20474;-47
2024/03/10 07:00:08;;;;;;;0.30;0.20;;;;;;;9.78;76.95;98163.22;5031113;28;20456;-48
2024/03/10 07:02:35;;;;;;;0.30;0.20;;;;;;;9.62;77.22;98178.34;5029060;28;20512;-49
2024/03/10 07:05:03;;;;;;;0.30;0.20;;;;;;;9.70;77.72;98190.19;5022243;28;20877;-47
2024/03/10 07:07:30;;;;;;;0.30;0.20;;;;;;;9.74;77.35;98177.63;5036562;28;20495;-48
2024/03/10 07:09:57;;;;;;;0.67;0.67;;;;;;;9.78;77.12;98176.50;5052075;28;20509;-47
2024/03/10 07:12:23;;;;;;;0.30;0.20;;;;;;;9.64;77.82;98179.09;5044185;28;20474;-46
2024/03/10 07:14:50;;;;;;;0.30;0.20;;;;;;;9.63;77.42;98178.25;5052057;28;20516;-47
2024/03/10 07:17:17;;;;;;;0.30;0.20;;;;;;;9.91;77.01;98166.84;5052165;28;20498;-47
2024/03/10 07:19:45;;;;;;;0.30;0.20;;;;;;;9.56;78.47;98174.22;5052721;28;20447;-47
2024/03/10 07:22:12;;;;;;;0.40;0.20;;;;;;;9.61;78.81;98166.88;5052389;28;20955;-48
2024/03/10 07:24:38;;;;;;;0.50;0.50;;;;;;;9.54;78.83;98181.44;5041313;28;20951;-47
2024/03/10 07:27:08;;;;;;;0.30;0.20;;;;;;;9.61;78.00;98172.19;5022400;28;20833;-48
2024/03/10 07:29:36;;;;;;;0.30;0.20;;;;;;;9.56;79.11;98168.06;5037829;28;20530;-48
2024/03/10 07:32:04;;;;;;;0.30;0.20;;;;;;;9.57;78.73;98165.31;5052758;28;20458;-47
2024/03/10 07:34:30;;;;;;;0.30;0.20;;;;;;;9.72;78.98;98145.84;5040979;28;20444;-47
2024/03/10 07:36:57;;;;;;;0.30;0.20;;;;;;;9.45;79.95;98140.38;5051771;28;20493;-46
2024/03/10 07:39:24;;;;;;;0.30;0.20;;;;;;;9.38;79.83;98116.97;5048082;28;20452;-47
2024/03/10 07:41:50;;;;;;;0.30;0.20;;;;;;;9.57;79.48;98093.72;5035191;28;20463;-47
2024/03/10 07:44:17;;;;;;;0.30;0.20;;;;;;;9.50;79.51;98095.03;5042302;28;20813;-47
2024/03/10 07:46:43;;;;;;;0.30;0.20;;;;;;;9.44;80.03;98080.34;5036420;28;20518;-47
2024/03/10 07:49:10;;;;;;;0.30;0.20;;;;;;;9.58;79.92;98066.25;5038913;28;20956;-47
2024/03/10 07:51:37;;;;;;;0.30;0.20;;;;;;;9.47;79.65;98066.91;5035125;28;20854;-46
2024/03/10 07:54:04;;;;;;;0.30;0.20;;;;;;;9.49;79.36;98072.97;5040117;28;20454;-47
2024/03/10 07:56:32;;;;;;;0.30;0.20;;;;;;;9.52;79.67;98065.78;5035604;28;20467;-46
2024/03/10 07:58:58;;;;;;;0.30;0.20;;;;;;;9.57;79.02;98087.56;5046332;28;20512;-47
2024/03/10 08:01:25;;;;;;;0.30;0.20;;;;;;;9.59;79.23;98101.59;5028210;28;20974;-48
2024/03/10 08:03:54;;;;;;;0.30;0.20;;;;;;;9.64;79.41;98103.03;5029702;28;20936;-46
2024/03/10 08:06:21;;;;;;;0.30;0.20;;;;;;;9.67;79.18;98097.53;5043122;28;20463;-46
2024/03/10 08:08:48;;;;;;;0.30;0.20;;;;;;;9.70;78.55;98094.69;5045469;28;20471;-48
2024/03/10 08:11:15;;;;;;;0.30;0.20;;;;;;;9.80;78.25;98089.69;5042002;28;20863;-47
2024/03/10 08:13:46;;;;;;;0.30;0.20;;;;;;;10.14;77.18;98077.84;5041868;28;20459;-46
2024/03/10 08:16:13;;;;;;;0.30;0.20;;;;;;;9.99;77.19;98061.06;5044141;28;20434;-46
2024/03/10 08:18:41;;;;;;;0.30;0.20;;;;;;;10.21;76.93;98050.00;5056293;28;20466;-46
2024/03/10 08:21:07;;;;;;;0.30;0.20;;;;;;;10.19;77.24;98056.31;5048130;28;20470;-46
2024/03/10 08:23:34;;;;;;;0.30;0.17;;;;;;;9.96;77.45;98063.91;5055936;28;21164;-47
2024/03/10 08:26:01;;;;;;;0.30;0.20;;;;;;;10.06;77.58;98066.84;5031335;28;20549;-48
2024/03/10 08:28:28;;;;;;;0.30;0.20;;;;;;;10.18;76.63;98078.53;5052160;28;20475;-46
2024/03/10 08:30:54;;;;;;;0.30;0.20;;;;;;;10.12;76.55;98082.38;5042431;28;20571;-47
2024/03/10 08:33:21;;;;;;;0.30;0.20;;;;;;;10.16;76.70;98086.59;5053186;28;20458;-46
2024/03/10 08:35:48;;;;;;;0.30;0.20;;;;;;;10.06;76.18;98088.94;5048580;28;20447;-47
2024/03/10 08:38:14;;;;;;;0.30;0.20;;;;;;;10.16;75.95;98099.00;5052332;28;20471;-47
2024/03/10 08:40:42;;;;;;;0.30;0.20;;;;;;;10.36;76.14;98102.13;5022859;28;20506;-47
2024/03/10 08:43:08;;;;;;;0.30;0.20;;;;;;;10.27;74.93;98107.16;5041111;28;21062;-46
2024/03/10 08:45:35;;;;;;;0.30;0.20;;;;;;;10.22;75.66;98098.63;5029381;28;20456;-46
2024/03/10 08:48:04;;;;;;;0.30;0.20;;;;;;;10.33;75.37;98096.16;5042451;28;20549;-48
2024/03/10 08:50:31;;;;;;;0.30;0.20;;;;;;;10.38;74.62;98104.69;5037551;28;20498;-47
2024/03/10 08:52:58;;;;;;;0.30;0.20;;;;;;;10.43;74.88;98097.31;5054142;28;20451;-46
2024/03/10 08:55:24;;;;;;;0.30;0.20;;;;;;;10.53;75.29;98090.44;5050030;28;20989;-46
2024/03/10 08:57:51;;;;;;;0.30;0.20;;;;;;;10.38;74.41;98084.28;5035983;28;20470;-46
2024/03/10 09:00:18;;;;;;;0.30;0.20;;;;;;;10.39;73.71;98091.31;5033879;28;20451;-47
2024/03/10 09:02:45;;;;;;;0.30;0.20;;;;;;;10.44;73.50;98083.06;5046499;28;20846;-48
2024/03/10 09:05:12;;;;;;;0.30;0.20;;;;;;;10.43;73.48;98099.13;5050892;28;20459;-46
2024/03/10 09:07:40;;;;;;;0.30;0.20;;;;;;;10.52;73.08;98106.47;5051373;28;20859;-48
2024/03/10 09:10:08;;;;;;;0.30;0.20;;;;;;;10.59;72.87;98092.72;5035972;28;20476;-47
2024/03/10 09:12:34;;;;;;;0.30;0.20;;;;;;;10.76;73.48;98094.28;5042282;28;20464;-46
2024/03/10 09:15:02;;;;;;;0.30;0.20;;;;;;;10.84;73.40;98085.81;5032530;28;21040;-47
2024/03/10 09:17:29;;;;;;;0.30;0.20;;;;;;;10.52;72.61;98077.25;5042820;28;20474;-49
2024/03/10 09:19:56;;;;;;;0.30;0.20;;;;;;;10.62;73.44;98073.06;5039592;28;20542;-47
2024/03/10 09:22:22;;;;;;;0.30;0.20;;;;;;;10.76;72.89;98072.16;5054062;28;20450;-47
2024/03/10 09:24:49;;;;;;;0.30;0.20;;;;;;;10.82;72.60;98082.38;5044895;28;20455;-46
2024/03/10 09:27:19;;;;;;;0.30;0.20;;;;;;;10.70;72.59;98078.75;5035803;28;20565;-47
2024/03/10 09:29:47;;;;;;;0.30;0.20;;;;;;;10.68;72.36;98092.09;5034821;28;20457;-50
2024/03/10 09:32:15;;;;;;;0.30;0.20;;;;;;;10.69;71.56;98090.34;5026354;28;20498;-47
2024/03/10 09:34:42;;;;;;;0.30;0.20;;;;;;;10.78;71.83;98088.88;5031682;28;20453;-46
2024/03/10 09:37:09;;;;;;;0.30;0.20;;;;;;;10.88;71.80;98085.50;5037731;28;20476;-46
2024/03/10 09:39:35;;;;;;;0.30;0.20;;;;;;;10.73;71.72;98089.19;5041656;28;20456;-48
2024/03/10 09:42:03;;;;;;;0.30;0.20;;;;;;;10.49;71.59;98090.75;5026725;28;20532;-46
2024/03/10 09:44:32;;;;;;;2.00;1.90;;;;;;;10.63;70.99;98085.41;5030409;28;21004;-47
2024/03/10 09:46:59;;;;;;;0.30;0.20;;;;;;;10.75;71.09;98076.63;5054413;28;20995;-47
2024/03/10 09:49:26;;;;;;;0.40;0.30;;;;;;;10.73;70.42;98078.53;5039615;28;20505;-46
2024/03/10 09:51:53;;;;;;;0.30;0.20;;;;;;;10.79;71.06;98070.16;5035443;28;20488;-47
2024/03/10 09:54:22;;;;;;;0.30;0.20;;;;;;;10.97;70.18;98066.31;5044948;28;20515;-48
2024/03/10 09:56:52;;;;;;;0.30;0.20;;;;;;;10.98;71.17;98059.19;5039954;28;20442;-47
2024/03/10 09:59:27;;;;;;;0.30;0.20;;;;;;;10.99;71.37;98063.56;5034675;28;20454;-49
2024/03/10 10:01:54;;;;;;;0.33;0.20;;;;;;;11.31;70.21;98064.06;5017029;28;20467;-51
2024/03/10 10:04:25;;;;;;;0.30;0.17;;;;;;;11.24;70.67;98060.97;5035719;28;20469;-50
2024/03/10 10:06:52;;;;;;;0.30;0.20;;;;;;;11.06;70.20;98078.13;5042323;28;20451;-49
2024/03/10 10:09:19;;;;;;;0.30;0.20;;;;;;;10.89;69.97;98079.25;5054736;28;20447;-50
2024/03/10 10:11:46;;;;;;;0.30;0.20;;;;;;;11.11;69.10;98077.84;5053793;28;20518;-48
2024/03/10 10:14:14;;;;;;;0.30;0.20;;;;;;;11.20;69.63;98072.75;5028866;28;20448;-50
2024/03/10 10:16:56;;;;;;;0.30;0.20;;;;;;;11.41;69.91;98074.94;5039649;28;20509;-50
2024/03/10 10:19:27;;;;;;;0.30;0.20;;;;;;;11.51;68.90;98071.56;5053025;28;20446;-50
2024/03/10 10:21:54;;;;;;;0.50;0.50;;;;;;;11.33;68.00;98086.06;5052679;28;20442;-50
2024/03/10 10:24:20;;;;;;;0.30;0.20;;;;;;;11.44;68.78;98086.22;5052600;28;20622;-50
2024/03/10 10:27:03;;;;;;;0.30;0.20;;;;;;;11.38;68.27;98083.13;5028147;28;20544;-50
2024/03/10 10:29:47;;;;;;;0.30;0.20;;;;;;;11.34;68.30;98078.94;5053065;28;20470;-49
2024/03/10 10:32:14;;;;;;;0.30;0.20;;;;;;;11.36;68.70;98071.72;5052947;28;20530;-49
2024/03/10 10:34:40;;;;;;;0.30;0.20;;;;;;;11.50;69.06;98084.94;5052494;28;20504;-49
2024/03/10 10:37:07;;;;;;;0.30;0.20;;;;;;;11.66;68.76;98080.28;5052428;28;21042;-50
2024/03/10 10:39:33;;;;;;;0.30;0.20;;;;;;;11.33;67.90;98088.75;5045302;28;20906;-49
2024/03/10 10:42:01;;;;;;;0.30;0.20;;;;;;;11.36;68.50;98069.91;5040818;28;20447;-49
2024/03/10 10:44:29;;;;;;;0.30;0.20;;;;;;;11.46;67.46;98057.69;5052423;28;20454;-50
2024/03/10 10:46:59;;;;;;;0.30;0.20;;;;;;;11.74;67.26;98069.09;5052313;28;20451;-50
2024/03/10 10:49:26;;;;;;;0.30;0.20;;;;;;;12.02;67.89;98063.59;5042302;28;20834;-50
2024/03/10 10:51:56;;;;;;;0.30;0.20;;;;;;;11.71;66.68;98061.34;5041661;28;20607;-50
2024/03/10 10:54:23;;;;;;;0.30;0.20;;;;;;;11.63;67.52;98059.19;5052279;28;20454;-50
2024/03/10 10:56:54;;;;;;;0.30;0.20;;;;;;;11.71;67.89;98045.38;5039172;28;20541;-50
2024/03/10 10:59:24;;;;;;;0.30;0.20;;;;;;;11.79;66.90;98053.72;5052278;28;21018;-50
2024/03/10 11:02:19;;;;;;;0.30;0.20;;;;;;;11.53;68.69;98045.69;5053122;28;20445;-49
2024/03/10 11:04:46;;;;;;;0.30;0.20;;;;;;;11.54;67.56;98065.16;5050218;28;20454;-49
2024/03/10 11:07:15;;;;;;;0.30;0.20;;;;;;;11.52;67.13;98075.91;5052522;28;20478;-49
2024/03/10 11:09:42;;;;;;;0.30;0.20;;;;;;;11.66;67.20;98071.47;5052433;28;20504;-50
2024/03/10 11:12:21;;;;;;;0.30;0.20;;;;;;;11.79;66.94;98064.38;5051604;28;21003;-49
2024/03/10 11:14:49;;;;;;;0.30;0.20;;;;;;;11.69;66.99;98061.44;5052212;28;20446;-50
2024/03/10 11:17:18;;;;;;;0.30;0.20;;;;;;;11.78;66.53;98049.28;5051934;28;20478;-50
2024/03/10 11:19:52;;;;;;;0.30;0.20;;;;;;;11.75;67.03;98039.72;5051937;28;20896;-49
2024/03/10 11:22:29;;;;;;;0.30;0.20;;;;;;;11.97;67.27;98035.59;5051884;28;20445;-50
2024/03/10 11:25:11;;;;;;;0.80;0.80;;;;;;;11.81;67.14;98041.16;5051834;28;20529;-50
2024/03/10 11:27:42;;;;;;;0.30;0.20;;;;;;;11.69;66.98;98045.47;5031468;28;20519;-49
2024/03/10 11:30:46;;;;;;;0.30;0.20;;;;;;;11.87;67.28;98051.38;5052082;28;20874;-50
2024/03/10 11:33:13;;;;;;;0.30;0.20;;;;;;;11.92;67.34;98037.72;5051575;28;20445;-49
2024/03/10 11:35:40;;;;;;;0.30;0.20;;;;;;;11.89;67.06;98027.28;5052117;28;20446;-50
2024/03/10 11:38:10;;;;;;;0.30;0.20;;;;;;;11.90;66.97;98019.19;5052215;28;20558;-51
2024/03/10 11:40:36;;;;;;;0.30;0.20;;;;;;;12.37;66.42;98022.97;5036296;28;20944;-51
2024/03/10 11:43:03;;;;;;;0.30;0.20;;;;;;;12.44;64.56;98019.72;5051608;28;20454;-51
2024/03/10 11:45:34;;;;;;;0.30;0.20;;;;;;;12.32;65.53;98023.28;5055812;28;20489;-51
2024/03/10 11:48:00;;;;;;;0.40;0.20;;;;;;;12.25;65.96;98032.69;5055711;28;20562;-51
2024/03/10 11:50:29;;;;;;;0.30;0.20;;;;;;;12.49;66.40;98037.22;5037435;28;20458;-49
2024/03/10 11:52:57;;;;;;;1.87;1.77;;;;;;;12.46;64.91;98035.59;5053523;28;20544;-52
2024/03/10 11:55:24;;;;;;;0.30;0.20;;;;;;;12.16;65.30;98034.19;5048052;28;20449;-51
2024/03/10 11:57:52;;;;;;;0.30;0.20;;;;;;;11.99;65.15;98039.84;5052767;28;20471;-50
2024/03/10 12:00:21;;;;;;;3.30;3.10;;;;;;;12.23;65.34;98031.09;5055709;28;20442;-51
2024/03/10 12:02:51;;;;;;;0.30;0.20;;;;;;;12.06;65.48;98014.50;5055622;28;20443;-51